createdAt,value
2019-01-13T00:00:01.139Z,994.00
2019-01-13T00:01:01.228Z,994.06
2019-01-13T00:02:01.123Z,993.97
2019-01-13T00:03:01.106Z,994.02
2019-01-13T00:04:01.120Z,994.05
2019-01-13T00:05:01.084Z,994.03
2019-01-13T00:06:01.070Z,994.04
2019-01-13T00:07:01.315Z,994.07
2019-01-13T00:08:01.049Z,994.11
2019-01-13T00:09:01.064Z,994.06
2019-01-13T00:10:01.043Z,994.06
2019-01-13T00:11:01.024Z,994.04
2019-01-13T00:12:01.008Z,994.04
2019-01-13T00:13:01.025Z,994.08
2019-01-13T00:14:00.996Z,994.06
2019-01-13T00:15:00.972Z,994.08
2019-01-13T00:16:00.972Z,994.11
2019-01-13T00:17:00.955Z,994.08
2019-01-13T00:18:00.940Z,994.13
2019-01-13T00:19:01.013Z,994.12
2019-01-13T00:20:00.974Z,994.13
2019-01-13T00:21:00.911Z,994.10
2019-01-13T00:22:00.899Z,994.18
2019-01-13T00:23:00.886Z,994.10
2019-01-13T00:24:00.877Z,994.09
2019-01-13T00:25:00.897Z,994.07
2019-01-13T00:26:00.853Z,994.09
2019-01-13T00:27:00.845Z,994.09
2019-01-13T00:28:00.867Z,994.10
2019-01-13T00:29:00.853Z,994.17
2019-01-13T00:30:00.833Z,994.10
2019-01-13T00:31:00.824Z,994.00
2019-01-13T00:32:00.789Z,994.22
2019-01-13T00:33:00.778Z,994.05
2019-01-13T00:34:00.805Z,994.04
2019-01-13T00:35:00.754Z,994.09
2019-01-13T00:36:00.766Z,994.01
2019-01-13T00:37:00.790Z,994.04
2019-01-13T00:38:00.743Z,994.01
2019-01-13T00:39:00.716Z,993.96
2019-01-13T00:40:00.715Z,994.10
2019-01-13T00:41:00.700Z,994.11
2019-01-13T00:42:00.677Z,994.05
2019-01-13T00:43:00.701Z,994.11
2019-01-13T00:44:00.651Z,994.10
2019-01-13T00:45:00.647Z,994.05
2019-01-13T00:46:00.636Z,994.02
2019-01-13T00:47:00.626Z,994.01
2019-01-13T00:48:00.615Z,994.05
2019-01-13T00:49:00.654Z,994.09
2019-01-13T00:50:00.608Z,994.10
2019-01-13T00:51:00.584Z,994.14
2019-01-13T00:52:00.573Z,994.16
2019-01-13T00:53:00.558Z,994.19
2019-01-13T00:54:00.559Z,994.20
2019-01-13T00:55:00.590Z,994.21
2019-01-13T00:56:00.536Z,994.21
2019-01-13T00:57:00.516Z,994.22
2019-01-13T00:58:00.510Z,994.22
2019-01-13T00:59:00.498Z,994.22
2019-01-13T01:00:00.481Z,994.21
2019-01-13T01:01:00.523Z,994.21
2019-01-13T01:02:00.466Z,994.21
2019-01-13T01:03:00.448Z,994.16
2019-01-13T01:04:00.447Z,994.14
2019-01-13T01:05:00.428Z,994.15
2019-01-13T01:06:00.433Z,994.11
2019-01-13T01:07:00.459Z,994.13
2019-01-13T01:08:00.396Z,994.19
2019-01-13T01:09:00.394Z,994.18
2019-01-13T01:10:00.378Z,994.19
2019-01-13T01:11:00.385Z,994.15
2019-01-13T01:12:00.355Z,994.17
2019-01-13T01:13:00.380Z,994.08
2019-01-13T01:14:00.339Z,994.04
2019-01-13T01:15:00.330Z,994.03
2019-01-13T01:16:00.324Z,993.99
2019-01-13T01:17:00.333Z,993.99
2019-01-13T01:18:00.290Z,994.00
2019-01-13T01:19:00.309Z,993.98
2019-01-13T01:20:00.266Z,994.00
2019-01-13T01:21:00.256Z,993.97
2019-01-13T01:22:00.248Z,993.94
2019-01-13T01:23:00.232Z,993.87
2019-01-13T01:24:00.220Z,993.90
2019-01-13T01:25:00.266Z,993.87
2019-01-13T01:26:00.222Z,993.85
2019-01-13T01:27:00.208Z,993.84
2019-01-13T01:28:00.236Z,993.89
2019-01-13T01:29:00.178Z,993.85
2019-01-13T01:30:00.248Z,993.86
2019-01-13T01:31:00.191Z,993.85
2019-01-13T01:32:00.137Z,993.89
2019-01-13T01:33:00.133Z,993.87
2019-01-13T01:34:00.140Z,993.93
2019-01-13T01:35:00.106Z,993.89
2019-01-13T01:36:00.113Z,993.92
2019-01-13T01:37:00.112Z,993.84
2019-01-13T01:38:00.078Z,993.85
2019-01-13T01:39:00.060Z,993.80
2019-01-13T01:40:00.103Z,993.72
2019-01-13T01:41:00.033Z,993.68
2019-01-13T01:42:00.027Z,993.64
2019-01-13T01:43:00.054Z,993.63
2019-01-13T01:44:00.046Z,993.61
2019-01-13T01:44:59.995Z,993.65
2019-01-13T01:45:59.988Z,993.71
2019-01-13T01:46:59.983Z,993.69
2019-01-13T01:47:59.968Z,993.68
2019-01-13T01:48:59.998Z,993.75
2019-01-13T01:49:59.939Z,993.81
2019-01-13T01:50:59.941Z,993.81
2019-01-13T01:51:59.915Z,993.83
2019-01-13T01:52:59.914Z,993.81
2019-01-13T01:53:59.936Z,993.84
2019-01-13T01:54:59.913Z,993.84
2019-01-13T01:55:59.911Z,993.89
2019-01-13T01:56:59.863Z,993.83
2019-01-13T01:57:59.853Z,993.82
2019-01-13T01:58:59.849Z,993.79
2019-01-13T01:59:59.840Z,993.80
2019-01-13T02:00:59.861Z,993.81
2019-01-13T02:01:59.807Z,993.78
2019-01-13T02:02:59.799Z,993.79
2019-01-13T02:03:59.813Z,993.76
2019-01-13T02:04:59.814Z,993.76
2019-01-13T02:05:59.775Z,993.77
2019-01-13T02:06:59.803Z,993.73
2019-01-13T02:07:59.809Z,993.71
2019-01-13T02:08:59.737Z,993.67
2019-01-13T02:09:59.723Z,993.69
2019-01-13T02:10:59.709Z,993.64
2019-01-13T02:11:59.708Z,993.61
2019-01-13T02:12:59.740Z,993.60
2019-01-13T02:13:59.713Z,993.60
2019-01-13T02:14:59.666Z,993.60
2019-01-13T02:15:59.657Z,993.54
2019-01-13T02:16:59.646Z,993.56
2019-01-13T02:17:59.634Z,993.55
2019-01-13T02:18:59.683Z,993.58
2019-01-13T02:19:59.621Z,993.55
2019-01-13T02:20:59.615Z,993.54
2019-01-13T02:21:59.604Z,993.49
2019-01-13T02:22:59.583Z,993.49
2019-01-13T02:23:59.575Z,993.50
2019-01-13T02:24:59.642Z,993.54
2019-01-13T02:25:59.559Z,993.47
2019-01-13T02:26:59.540Z,993.56
2019-01-13T02:27:59.534Z,993.47
2019-01-13T02:28:59.517Z,993.52
2019-01-13T02:29:59.501Z,993.55
2019-01-13T02:30:59.542Z,993.47
2019-01-13T02:31:59.483Z,993.50
2019-01-13T02:32:59.471Z,993.45
2019-01-13T02:33:59.460Z,993.43
2019-01-13T02:34:59.452Z,993.42
2019-01-13T02:35:59.451Z,993.30
2019-01-13T02:36:59.481Z,993.29
2019-01-13T02:37:59.421Z,993.25
2019-01-13T02:38:59.411Z,993.25
2019-01-13T02:39:59.458Z,993.23
2019-01-13T02:40:59.386Z,993.20
2019-01-13T02:41:59.379Z,993.26
2019-01-13T02:42:59.422Z,993.21
2019-01-13T02:43:59.354Z,993.20
2019-01-13T02:44:59.352Z,993.18
2019-01-13T02:45:59.390Z,993.18
2019-01-13T02:46:59.343Z,993.14
2019-01-13T02:47:59.310Z,993.09
2019-01-13T02:48:59.343Z,993.10
2019-01-13T02:49:59.297Z,993.18
2019-01-13T02:50:59.285Z,993.16
2019-01-13T02:51:59.278Z,993.10
2019-01-13T02:52:59.250Z,993.09
2019-01-13T02:53:59.249Z,993.12
2019-01-13T02:54:59.267Z,993.09
2019-01-13T02:55:59.229Z,993.10
2019-01-13T02:56:59.244Z,992.99
2019-01-13T02:57:59.204Z,992.99
2019-01-13T02:58:59.196Z,992.95
2019-01-13T02:59:59.191Z,993.01
2019-01-13T03:00:59.216Z,992.98
2019-01-13T03:01:59.156Z,992.99
2019-01-13T03:02:59.144Z,992.93
2019-01-13T03:03:59.161Z,992.92
2019-01-13T03:04:59.176Z,992.99
2019-01-13T03:05:59.117Z,992.96
2019-01-13T03:06:59.182Z,992.97
2019-01-13T03:07:59.093Z,992.93
2019-01-13T03:08:59.082Z,992.93
2019-01-13T03:09:59.089Z,992.93
2019-01-13T03:10:59.073Z,992.90
2019-01-13T03:11:59.055Z,992.90
2019-01-13T03:12:59.104Z,992.92
2019-01-13T03:13:59.032Z,992.92
2019-01-13T03:14:59.031Z,992.96
2019-01-13T03:15:59.019Z,993.01
2019-01-13T03:16:59.015Z,992.96
2019-01-13T03:17:59.008Z,993.02
2019-01-13T03:18:59.004Z,992.99
2019-01-13T03:19:58.958Z,992.99
2019-01-13T03:20:58.959Z,992.96
2019-01-13T03:21:58.939Z,992.94
2019-01-13T03:22:58.935Z,992.99
2019-01-13T03:23:58.982Z,993.02
2019-01-13T03:24:58.999Z,993.02
2019-01-13T03:25:58.910Z,993.05
2019-01-13T03:26:58.955Z,993.04
2019-01-13T03:27:58.877Z,993.12
2019-01-13T03:28:58.924Z,993.16
2019-01-13T03:29:58.883Z,993.09
2019-01-13T03:31:11.295Z,993.10
2019-01-13T03:31:59.847Z,993.02
2019-01-13T03:32:58.823Z,993.10
2019-01-13T03:33:58.812Z,993.05
2019-01-13T03:34:58.846Z,993.02
2019-01-13T03:35:58.793Z,993.07
2019-01-13T03:36:58.804Z,993.05
2019-01-13T03:37:58.776Z,993.07
2019-01-13T03:38:58.758Z,993.05
2019-01-13T03:39:58.751Z,992.96
2019-01-13T03:40:58.774Z,992.99
2019-01-13T03:41:58.717Z,992.92
2019-01-13T03:42:58.754Z,992.89
2019-01-13T03:43:58.709Z,992.90
2019-01-13T03:44:58.690Z,992.94
2019-01-13T03:45:58.675Z,992.92
2019-01-13T03:46:58.708Z,992.95
2019-01-13T03:47:58.659Z,992.94
2019-01-13T03:48:58.679Z,992.98
2019-01-13T03:49:58.633Z,992.99
2019-01-13T03:50:58.633Z,992.94
2019-01-13T03:51:58.622Z,992.90
2019-01-13T03:52:58.605Z,992.91
2019-01-13T03:53:58.584Z,992.91
2019-01-13T03:54:58.617Z,992.85
2019-01-13T03:55:58.567Z,992.89
2019-01-13T03:56:58.562Z,992.86
2019-01-13T03:57:58.555Z,992.94
2019-01-13T03:58:58.535Z,992.90
2019-01-13T03:59:58.537Z,992.89
2019-01-13T04:00:58.552Z,992.85
2019-01-13T04:01:58.504Z,992.81
2019-01-13T04:02:58.490Z,992.78
2019-01-13T04:03:58.488Z,992.84
2019-01-13T04:04:58.479Z,992.83
2019-01-13T04:05:58.471Z,992.81
2019-01-13T04:06:58.652Z,992.77
2019-01-13T04:07:58.451Z,992.76
2019-01-13T04:08:58.435Z,992.61
2019-01-13T04:09:58.425Z,992.59
2019-01-13T04:10:58.414Z,992.56
2019-01-13T04:11:58.396Z,992.53
2019-01-13T04:12:58.428Z,992.49
2019-01-13T04:13:58.374Z,992.44
2019-01-13T04:14:58.381Z,992.31
2019-01-13T04:15:58.351Z,992.25
2019-01-13T04:16:58.349Z,992.18
2019-01-13T04:17:58.381Z,992.14
2019-01-13T04:18:58.404Z,992.07
2019-01-13T04:19:58.308Z,992.04
2019-01-13T04:20:58.295Z,992.07
2019-01-13T04:21:58.294Z,992.06
2019-01-13T04:22:58.289Z,992.11
2019-01-13T04:23:58.268Z,992.09
2019-01-13T04:24:58.290Z,992.15
2019-01-13T04:25:58.241Z,992.11
2019-01-13T04:26:58.266Z,992.14
2019-01-13T04:27:58.216Z,992.13
2019-01-13T04:28:58.211Z,992.18
2019-01-13T04:29:58.204Z,992.21
2019-01-13T04:30:58.237Z,992.14
2019-01-13T04:31:58.198Z,992.19
2019-01-13T04:32:58.183Z,992.16
2019-01-13T04:33:58.162Z,992.12
2019-01-13T04:34:58.142Z,992.11
2019-01-13T04:35:58.142Z,992.07
2019-01-13T04:36:58.154Z,992.01
2019-01-13T04:37:58.127Z,992.01
2019-01-13T04:38:58.094Z,991.94
2019-01-13T04:39:58.096Z,991.91
2019-01-13T04:40:58.104Z,991.86
2019-01-13T04:41:58.079Z,991.85
2019-01-13T04:42:58.110Z,991.84
2019-01-13T04:43:58.070Z,991.81
2019-01-13T04:44:58.036Z,991.85
2019-01-13T04:45:58.027Z,991.85
2019-01-13T04:46:58.029Z,991.84
2019-01-13T04:47:58.002Z,991.77
2019-01-13T04:48:58.025Z,991.78
2019-01-13T04:49:57.996Z,991.71
2019-01-13T04:50:57.969Z,991.68
2019-01-13T04:51:57.959Z,991.62
2019-01-13T04:52:57.990Z,991.58
2019-01-13T04:53:57.936Z,991.65
2019-01-13T04:54:58.108Z,991.61
2019-01-13T04:55:57.943Z,991.58
2019-01-13T04:56:57.905Z,991.57
2019-01-13T04:57:57.892Z,991.60
2019-01-13T04:58:57.884Z,991.59
2019-01-13T04:59:57.872Z,991.58
2019-01-13T05:00:57.906Z,991.57
2019-01-13T05:01:57.871Z,991.54
2019-01-13T05:02:57.850Z,991.61
2019-01-13T05:03:57.828Z,991.61
2019-01-13T05:04:57.825Z,991.62
2019-01-13T05:05:57.804Z,991.63
2019-01-13T05:06:57.821Z,991.59
2019-01-13T05:07:57.779Z,991.53
2019-01-13T05:08:57.803Z,991.51
2019-01-13T05:09:57.768Z,991.53
2019-01-13T05:10:57.778Z,991.52
2019-01-13T05:11:57.750Z,991.55
2019-01-13T05:12:57.766Z,991.50
2019-01-13T05:13:57.719Z,991.48
2019-01-13T05:14:57.710Z,991.50
2019-01-13T05:15:57.716Z,991.43
2019-01-13T05:16:57.691Z,991.44
2019-01-13T05:17:57.676Z,991.40
2019-01-13T05:18:57.700Z,991.42
2019-01-13T05:19:57.655Z,991.40
2019-01-13T05:20:57.652Z,991.42
2019-01-13T05:21:57.639Z,991.38
2019-01-13T05:22:57.632Z,991.34
2019-01-13T05:23:57.639Z,991.27
2019-01-13T05:24:57.646Z,991.25
2019-01-13T05:25:57.593Z,991.24
2019-01-13T05:26:57.584Z,991.20
2019-01-13T05:27:57.566Z,991.08
2019-01-13T05:28:57.565Z,991.05
2019-01-13T05:29:57.552Z,991.01
2019-01-13T05:30:57.599Z,991.02
2019-01-13T05:31:57.528Z,991.02
2019-01-13T05:32:57.515Z,991.02
2019-01-13T05:33:57.504Z,990.94
2019-01-13T05:34:57.491Z,990.88
2019-01-13T05:35:57.485Z,990.81
2019-01-13T05:36:57.532Z,990.77
2019-01-13T05:37:57.479Z,990.76
2019-01-13T05:38:57.472Z,990.76
2019-01-13T05:39:57.477Z,990.69
2019-01-13T05:40:57.440Z,990.68
2019-01-13T05:41:57.422Z,990.69
2019-01-13T05:42:57.471Z,990.75
2019-01-13T05:43:57.414Z,990.69
2019-01-13T05:44:57.388Z,990.69
2019-01-13T05:45:57.371Z,990.64
2019-01-13T05:46:57.376Z,990.66
2019-01-13T05:47:57.364Z,990.60
2019-01-13T05:48:57.409Z,990.59
2019-01-13T05:49:57.328Z,990.56
2019-01-13T05:50:57.322Z,990.49
2019-01-13T05:51:57.328Z,990.61
2019-01-13T05:52:57.305Z,990.54
2019-01-13T05:53:57.304Z,990.50
2019-01-13T05:54:57.465Z,990.47
2019-01-13T05:55:57.276Z,990.47
2019-01-13T05:56:57.262Z,990.47
2019-01-13T05:57:57.244Z,990.36
2019-01-13T05:58:57.244Z,990.34
2019-01-13T05:59:57.235Z,990.32
2019-01-13T06:00:57.252Z,990.26
2019-01-13T06:01:57.209Z,990.24
2019-01-13T06:02:57.201Z,990.15
2019-01-13T06:03:57.177Z,990.21
2019-01-13T06:04:57.179Z,990.21
2019-01-13T06:05:57.173Z,990.25
2019-01-13T06:06:57.188Z,990.25
2019-01-13T06:07:57.143Z,990.28
2019-01-13T06:08:57.117Z,990.22
2019-01-13T06:09:57.117Z,990.26
2019-01-13T06:10:57.097Z,990.19
2019-01-13T06:11:57.087Z,990.12
2019-01-13T06:12:57.134Z,990.14
2019-01-13T06:13:57.066Z,990.14
2019-01-13T06:14:57.059Z,990.16
2019-01-13T06:15:57.053Z,990.08
2019-01-13T06:16:57.028Z,990.06
2019-01-13T06:17:57.033Z,990.05
2019-01-13T06:18:57.052Z,990.12
2019-01-13T06:19:56.998Z,990.10
2019-01-13T06:20:57.000Z,990.12
2019-01-13T06:21:56.974Z,990.07
2019-01-13T06:22:56.963Z,990.06
2019-01-13T06:23:56.952Z,990.09
2019-01-13T06:24:56.989Z,990.08
2019-01-13T06:25:56.939Z,990.10
2019-01-13T06:26:56.933Z,990.11
2019-01-13T06:27:56.925Z,990.10
2019-01-13T06:28:56.897Z,990.14
2019-01-13T06:29:56.889Z,990.08
2019-01-13T06:30:56.916Z,990.11
2019-01-13T06:31:56.871Z,990.09
2019-01-13T06:32:56.878Z,990.12
2019-01-13T06:33:56.860Z,990.08
2019-01-13T06:34:56.841Z,990.06
2019-01-13T06:35:56.885Z,990.03
2019-01-13T06:36:56.868Z,990.09
2019-01-13T06:37:56.818Z,990.11
2019-01-13T06:38:56.793Z,990.12
2019-01-13T06:39:56.788Z,990.12
2019-01-13T06:40:56.766Z,990.16
2019-01-13T06:41:56.756Z,990.12
2019-01-13T06:42:56.831Z,990.17
2019-01-13T06:43:56.734Z,990.21
2019-01-13T06:44:56.725Z,990.20
2019-01-13T06:45:56.717Z,990.21
2019-01-13T06:46:56.708Z,990.16
2019-01-13T06:47:56.723Z,990.15
2019-01-13T06:48:56.762Z,990.15
2019-01-13T06:49:56.671Z,990.17
2019-01-13T06:50:56.661Z,990.15
2019-01-13T06:51:56.648Z,990.17
2019-01-13T06:52:56.638Z,990.20
2019-01-13T06:53:56.641Z,990.18
2019-01-13T06:54:56.647Z,990.20
2019-01-13T06:55:56.611Z,990.18
2019-01-13T06:56:56.593Z,990.23
2019-01-13T06:57:56.583Z,990.23
2019-01-13T06:58:56.575Z,990.24
2019-01-13T06:59:56.580Z,990.20
2019-01-13T07:00:56.589Z,990.20
2019-01-13T07:02:03.196Z,990.18
2019-01-13T07:02:57.527Z,990.14
2019-01-13T07:03:56.521Z,990.21
2019-01-13T07:04:56.513Z,990.19
2019-01-13T07:05:56.509Z,990.15
2019-01-13T07:06:56.527Z,990.21
2019-01-13T07:07:56.474Z,990.22
2019-01-13T07:08:56.461Z,990.26
2019-01-13T07:09:56.504Z,990.20
2019-01-13T07:10:56.444Z,990.18
2019-01-13T07:11:56.430Z,990.23
2019-01-13T07:12:56.520Z,990.29
2019-01-13T07:13:56.416Z,990.26
2019-01-13T07:14:56.402Z,990.28
2019-01-13T07:15:56.390Z,990.27
2019-01-13T07:16:56.377Z,990.32
2019-01-13T07:17:56.364Z,990.27
2019-01-13T07:18:56.441Z,990.31
2019-01-13T07:19:56.353Z,990.24
2019-01-13T07:20:56.331Z,990.27
2019-01-13T07:21:56.324Z,990.27
2019-01-13T07:22:56.327Z,990.23
2019-01-13T07:23:56.303Z,990.23
2019-01-13T07:24:56.331Z,990.23
2019-01-13T07:25:56.288Z,990.20
2019-01-13T07:26:56.274Z,990.22
2019-01-13T07:27:56.260Z,990.19
2019-01-13T07:28:56.243Z,990.19
2019-01-13T07:29:56.234Z,990.12
2019-01-13T07:30:56.301Z,990.21
2019-01-13T07:31:56.225Z,990.18
2019-01-13T07:32:56.211Z,990.16
2019-01-13T07:33:56.197Z,990.13
2019-01-13T07:34:56.181Z,990.08
2019-01-13T07:35:56.173Z,990.15
2019-01-13T07:36:56.213Z,990.09
2019-01-13T07:37:56.157Z,990.06
2019-01-13T07:38:56.138Z,990.08
2019-01-13T07:39:56.127Z,990.00
2019-01-13T07:40:56.137Z,990.02
2019-01-13T07:41:56.132Z,990.10
2019-01-13T07:42:56.152Z,990.09
2019-01-13T07:43:56.119Z,990.07
2019-01-13T07:44:56.071Z,990.08
2019-01-13T07:45:56.062Z,990.06
2019-01-13T07:46:56.082Z,990.11
2019-01-13T07:47:56.040Z,990.10
2019-01-13T07:48:56.062Z,990.03
2019-01-13T07:49:56.081Z,990.00
2019-01-13T07:50:56.008Z,990.01
2019-01-13T07:51:56.002Z,990.04
2019-01-13T07:52:55.983Z,990.09
2019-01-13T07:53:55.972Z,990.05
2019-01-13T07:54:56.137Z,989.96
2019-01-13T07:55:55.950Z,990.00
2019-01-13T07:56:55.942Z,989.99
2019-01-13T07:57:55.928Z,989.89
2019-01-13T07:58:55.920Z,989.93
2019-01-13T07:59:55.907Z,989.95
2019-01-13T08:00:55.932Z,989.94
2019-01-13T08:01:55.906Z,989.98
2019-01-13T08:02:55.897Z,989.91
2019-01-13T08:03:55.866Z,989.88
2019-01-13T08:04:55.867Z,989.86
2019-01-13T08:05:55.843Z,989.89
2019-01-13T08:06:55.873Z,989.90
2019-01-13T08:07:55.833Z,989.83
2019-01-13T08:08:55.815Z,989.80
2019-01-13T08:09:55.799Z,989.85
2019-01-13T08:10:55.785Z,989.90
2019-01-13T08:11:55.779Z,989.81
2019-01-13T08:12:55.828Z,989.89
2019-01-13T08:13:55.765Z,989.79
2019-01-13T08:14:55.745Z,989.78
2019-01-13T08:15:55.736Z,989.80
2019-01-13T08:16:55.728Z,989.75
2019-01-13T08:17:55.710Z,989.73
2019-01-13T08:18:55.747Z,989.78
2019-01-13T08:19:55.688Z,989.82
2019-01-13T08:20:55.689Z,989.73
2019-01-13T08:21:55.670Z,989.71
2019-01-13T08:22:55.664Z,989.74
2019-01-13T08:23:55.657Z,989.73
2019-01-13T08:24:55.946Z,989.73
2019-01-13T08:25:55.625Z,989.69
2019-01-13T08:26:55.617Z,989.87
2019-01-13T08:27:55.602Z,989.77
2019-01-13T08:28:55.590Z,989.72
2019-01-13T08:29:55.583Z,989.70
2019-01-13T08:30:55.617Z,989.67
2019-01-13T08:31:55.595Z,989.67
2019-01-13T08:32:55.547Z,989.68
2019-01-13T08:33:55.540Z,989.69
2019-01-13T08:34:55.527Z,989.66
2019-01-13T08:35:55.520Z,989.63
2019-01-13T08:36:55.534Z,989.64
2019-01-13T08:37:55.492Z,989.62
2019-01-13T08:38:55.485Z,989.56
2019-01-13T08:39:55.470Z,989.55
2019-01-13T08:40:55.458Z,989.57
2019-01-13T08:41:55.465Z,989.54
2019-01-13T08:42:55.481Z,989.54
2019-01-13T08:43:55.427Z,989.57
2019-01-13T08:44:55.424Z,989.65
2019-01-13T08:45:55.407Z,989.57
2019-01-13T08:46:55.396Z,989.64
2019-01-13T08:47:55.396Z,989.61
2019-01-13T08:48:55.586Z,989.58
2019-01-13T08:49:55.367Z,989.55
2019-01-13T08:50:55.351Z,989.54
2019-01-13T08:51:55.345Z,989.51
2019-01-13T08:52:55.331Z,989.59
2019-01-13T08:53:55.347Z,989.49
2019-01-13T08:54:55.355Z,989.67
2019-01-13T08:55:55.294Z,989.49
2019-01-13T08:56:55.283Z,989.49
2019-01-13T08:57:55.272Z,989.43
2019-01-13T08:58:55.265Z,989.44
2019-01-13T08:59:55.263Z,989.34
2019-01-13T09:00:55.306Z,989.35
2019-01-13T09:01:55.248Z,989.39
2019-01-13T09:02:55.226Z,989.29
2019-01-13T09:03:55.208Z,989.36
2019-01-13T09:04:55.200Z,989.22
2019-01-13T09:05:55.190Z,989.21
2019-01-13T09:06:55.230Z,989.26
2019-01-13T09:07:55.176Z,989.24
2019-01-13T09:08:55.163Z,989.21
2019-01-13T09:09:55.140Z,989.18
2019-01-13T09:10:55.131Z,989.26
2019-01-13T09:11:55.119Z,989.17
2019-01-13T09:12:56.834Z,989.13
2019-01-13T09:13:55.114Z,989.15
2019-01-13T09:14:55.086Z,989.16
2019-01-13T09:15:55.081Z,989.18
2019-01-13T09:16:55.064Z,989.16
2019-01-13T09:17:55.053Z,989.28
2019-01-13T09:18:55.094Z,989.17
2019-01-13T09:19:55.057Z,989.23
2019-01-13T09:20:55.020Z,989.25
2019-01-13T09:21:55.100Z,989.30
2019-01-13T09:22:54.999Z,989.28
2019-01-13T09:23:54.987Z,989.26
2019-01-13T09:24:55.025Z,989.18
2019-01-13T09:25:54.966Z,989.22
2019-01-13T09:26:54.978Z,989.35
2019-01-13T09:27:54.944Z,989.29
2019-01-13T09:28:54.934Z,989.27
2019-01-13T09:29:54.922Z,989.18
2019-01-13T09:30:55.111Z,989.21
2019-01-13T09:31:54.902Z,989.22
2019-01-13T09:32:54.916Z,989.23
2019-01-13T09:33:54.886Z,989.27
2019-01-13T09:34:54.887Z,989.23
2019-01-13T09:35:54.869Z,989.21
2019-01-13T09:36:54.885Z,989.21
2019-01-13T09:37:54.835Z,989.19
2019-01-13T09:38:54.823Z,989.14
2019-01-13T09:39:54.828Z,989.17
2019-01-13T09:40:54.804Z,989.09
2019-01-13T09:41:54.796Z,989.08
2019-01-13T09:42:54.816Z,989.06
2019-01-13T09:43:54.775Z,989.02
2019-01-13T09:44:54.792Z,988.87
2019-01-13T09:45:54.761Z,988.94
2019-01-13T09:46:54.743Z,988.94
2019-01-13T09:47:54.773Z,988.96
2019-01-13T09:48:54.762Z,988.99
2019-01-13T09:49:54.710Z,988.92
2019-01-13T09:50:54.690Z,988.86
2019-01-13T09:51:54.681Z,988.84
2019-01-13T09:52:54.704Z,988.86
2019-01-13T09:53:54.658Z,988.84
2019-01-13T09:54:54.682Z,988.79
2019-01-13T09:55:54.637Z,988.88
2019-01-13T09:56:54.627Z,988.78
2019-01-13T09:57:54.619Z,988.75
2019-01-13T09:58:54.623Z,988.76
2019-01-13T09:59:54.606Z,988.73
2019-01-13T10:00:54.654Z,988.78
2019-01-13T10:01:54.584Z,988.78
2019-01-13T10:02:54.565Z,988.82
2019-01-13T10:03:54.550Z,988.79
2019-01-13T10:04:54.588Z,988.85
2019-01-13T10:05:54.543Z,988.76
2019-01-13T10:06:54.727Z,988.79
2019-01-13T10:07:54.512Z,988.80
2019-01-13T10:08:54.502Z,988.74
2019-01-13T10:09:54.495Z,988.66
2019-01-13T10:10:54.476Z,988.65
2019-01-13T10:11:54.476Z,988.81
2019-01-13T10:12:54.503Z,988.59
2019-01-13T10:13:54.447Z,988.66
2019-01-13T10:14:54.438Z,988.63
2019-01-13T10:15:54.417Z,988.65
2019-01-13T10:16:54.416Z,988.58
2019-01-13T10:17:54.413Z,988.60
2019-01-13T10:18:54.480Z,988.59
2019-01-13T10:19:54.409Z,988.71
2019-01-13T10:20:55.994Z,988.75
2019-01-13T10:21:54.359Z,988.74
2019-01-13T10:22:54.354Z,988.71
2019-01-13T10:23:54.340Z,988.83
2019-01-13T10:24:54.365Z,988.83
2019-01-13T10:25:54.323Z,988.76
2019-01-13T10:26:54.296Z,988.75
2019-01-13T10:27:54.293Z,988.79
2019-01-13T10:28:54.290Z,988.66
2019-01-13T10:29:54.289Z,988.62
2019-01-13T10:30:54.291Z,988.60
2019-01-13T10:31:54.256Z,988.60
2019-01-13T10:32:54.980Z,988.51
2019-01-13T10:33:54.219Z,988.53
2019-01-13T10:34:54.243Z,988.57
2019-01-13T10:35:54.255Z,988.52
2019-01-13T10:36:54.215Z,988.51
2019-01-13T10:37:54.177Z,988.47
2019-01-13T10:38:54.182Z,988.39
2019-01-13T10:39:54.178Z,988.40
2019-01-13T10:40:54.143Z,988.37
2019-01-13T10:41:54.134Z,988.38
2019-01-13T10:42:54.162Z,988.26
2019-01-13T10:43:54.115Z,988.28
2019-01-13T10:44:54.158Z,988.32
2019-01-13T10:45:54.094Z,988.31
2019-01-13T10:46:54.151Z,988.25
2019-01-13T10:47:54.069Z,988.35
2019-01-13T10:48:54.112Z,988.36
2019-01-13T10:49:54.047Z,988.30
2019-01-13T10:50:54.053Z,988.24
2019-01-13T10:51:54.036Z,988.24
2019-01-13T10:52:54.051Z,988.18
2019-01-13T10:53:54.006Z,988.05
2019-01-13T10:54:54.042Z,987.97
2019-01-13T10:55:55.490Z,987.94
2019-01-13T10:56:53.979Z,987.99
2019-01-13T10:57:53.961Z,987.83
2019-01-13T10:58:53.951Z,987.97
2019-01-13T10:59:53.941Z,988.05
2019-01-13T11:00:53.985Z,987.92
2019-01-13T11:01:53.991Z,987.92
2019-01-13T11:02:53.909Z,987.92
2019-01-13T11:03:53.894Z,987.83
2019-01-13T11:04:53.882Z,987.87
2019-01-13T11:05:53.873Z,987.97
2019-01-13T11:06:53.948Z,987.90
2019-01-13T11:07:53.850Z,987.83
2019-01-13T11:08:53.841Z,987.84
2019-01-13T11:09:53.827Z,987.74
2019-01-13T11:10:53.817Z,987.85
2019-01-13T11:11:53.807Z,987.92
2019-01-13T11:12:53.838Z,987.89
2019-01-13T11:13:53.786Z,987.68
2019-01-13T11:14:53.772Z,987.66
2019-01-13T11:15:53.761Z,987.56
2019-01-13T11:16:53.762Z,987.47
2019-01-13T11:17:53.746Z,987.56
2019-01-13T11:18:53.786Z,987.61
2019-01-13T11:19:53.722Z,987.56
2019-01-13T11:20:53.722Z,987.53
2019-01-13T11:21:53.696Z,987.52
2019-01-13T11:22:53.729Z,987.41
2019-01-13T11:23:53.674Z,987.44
2019-01-13T11:24:53.730Z,987.48
2019-01-13T11:25:53.713Z,987.42
2019-01-13T11:26:53.709Z,987.52
2019-01-13T11:27:53.634Z,987.29
2019-01-13T11:28:53.628Z,987.42
2019-01-13T11:29:53.615Z,987.46
2019-01-13T11:30:53.654Z,987.41
2019-01-13T11:31:53.604Z,987.41
2019-01-13T11:32:53.590Z,987.36
2019-01-13T11:33:53.606Z,987.46
2019-01-13T11:34:53.582Z,987.45
2019-01-13T11:35:53.548Z,987.40
2019-01-13T11:36:53.581Z,987.29
2019-01-13T11:37:53.536Z,987.41
2019-01-13T11:38:53.512Z,987.25
2019-01-13T11:39:53.540Z,987.28
2019-01-13T11:40:53.493Z,987.35
2019-01-13T11:41:53.487Z,987.21
2019-01-13T11:42:53.519Z,987.15
2019-01-13T11:43:53.456Z,987.36
2019-01-13T11:44:53.449Z,987.34
2019-01-13T11:45:53.457Z,987.26
2019-01-13T11:46:53.441Z,987.45
2019-01-13T11:47:53.419Z,987.30
2019-01-13T11:48:53.434Z,987.21
2019-01-13T11:49:53.393Z,987.17
2019-01-13T11:50:53.380Z,987.16
2019-01-13T11:51:53.368Z,987.22
2019-01-13T11:52:53.372Z,987.19
2019-01-13T11:53:53.349Z,987.13
2019-01-13T11:54:53.377Z,987.15
2019-01-13T11:55:53.322Z,987.19
2019-01-13T11:56:53.315Z,987.09
2019-01-13T11:57:53.302Z,987.15
2019-01-13T11:58:53.344Z,987.11
2019-01-13T11:59:53.281Z,986.99
2019-01-13T12:00:53.464Z,986.92
2019-01-13T12:01:53.256Z,986.87
2019-01-13T12:02:53.248Z,986.92
2019-01-13T12:03:53.251Z,986.92
2019-01-13T12:04:53.244Z,986.88
2019-01-13T12:05:53.218Z,986.87
2019-01-13T12:06:53.303Z,986.78
2019-01-13T12:07:53.191Z,986.72
2019-01-13T12:08:53.181Z,986.80
2019-01-13T12:09:53.171Z,986.74
2019-01-13T12:10:53.159Z,986.85
2019-01-13T12:11:53.161Z,986.84
2019-01-13T12:12:53.183Z,986.83
2019-01-13T12:13:53.129Z,986.91
2019-01-13T12:14:53.125Z,986.90
2019-01-13T12:15:53.110Z,986.87
2019-01-13T12:16:53.093Z,986.83
2019-01-13T12:17:53.092Z,986.90
2019-01-13T12:18:53.110Z,986.89
2019-01-13T12:19:53.060Z,986.78
2019-01-13T12:20:53.048Z,986.75
2019-01-13T12:21:53.037Z,986.76
2019-01-13T12:22:53.026Z,986.77
2019-01-13T12:23:53.033Z,986.71
2019-01-13T12:24:53.048Z,986.69
2019-01-13T12:25:53.074Z,986.66
2019-01-13T12:26:52.984Z,986.64
2019-01-13T12:27:53.005Z,986.68